sensor_id;sensor_type;location;lat;lon;timestamp;temperature;humidity
13332;DHT22;6735;51.456;12.626;2023-05-16T00:00:35;13.00;75.10
13332;DHT22;6735;51.456;12.626;2023-05-16T00:03:01;13.00;75.40
13332;DHT22;6735;51.456;12.626;2023-05-16T00:05:29;12.90;75.30
13332;DHT22;6735;51.456;12.626;2023-05-16T00:07:55;12.90;75.50
13332;DHT22;6735;51.456;12.626;2023-05-16T00:10:20;12.90;75.30
13332;DHT22;6735;51.456;12.626;2023-05-16T00:12:46;12.90;75.40
13332;DHT22;6735;51.456;12.626;2023-05-16T00:15:16;12.90;75.50
13332;DHT22;6735;51.456;12.626;2023-05-16T00:17:42;12.80;75.60
13332;DHT22;6735;51.456;12.626;2023-05-16T00:20:11;12.80;75.80
13332;DHT22;6735;51.456;12.626;2023-05-16T00:22:39;12.80;75.70
13332;DHT22;6735;51.456;12.626;2023-05-16T00:25:05;12.80;75.70
13332;DHT22;6735;51.456;12.626;2023-05-16T00:27:33;12.70;75.90
13332;DHT22;6735;51.456;12.626;2023-05-16T00:29:59;12.70;75.80
13332;DHT22;6735;51.456;12.626;2023-05-16T00:32:25;12.60;76.00
13332;DHT22;6735;51.456;12.626;2023-05-16T00:34:51;12.60;75.90
13332;DHT22;6735;51.456;12.626;2023-05-16T00:37:17;12.60;76.30
13332;DHT22;6735;51.456;12.626;2023-05-16T00:39:42;12.60;76.20
13332;DHT22;6735;51.456;12.626;2023-05-16T00:42:07;12.60;76.60
13332;DHT22;6735;51.456;12.626;2023-05-16T00:44:33;12.50;76.30
13332;DHT22;6735;51.456;12.626;2023-05-16T00:46:58;12.50;76.60
13332;DHT22;6735;51.456;12.626;2023-05-16T00:49:27;12.40;76.60
13332;DHT22;6735;51.456;12.626;2023-05-16T00:51:53;12.40;76.80
13332;DHT22;6735;51.456;12.626;2023-05-16T00:54:21;12.40;77.10
13332;DHT22;6735;51.456;12.626;2023-05-16T00:56:47;12.30;77.00
13332;DHT22;6735;51.456;12.626;2023-05-16T00:59:13;12.40;76.90
13332;DHT22;6735;51.456;12.626;2023-05-16T01:01:40;12.30;77.00
13332;DHT22;6735;51.456;12.626;2023-05-16T01:04:06;12.30;77.20
13332;DHT22;6735;51.456;12.626;2023-05-16T01:06:32;12.30;77.30
13332;DHT22;6735;51.456;12.626;2023-05-16T01:08:58;12.20;77.10
13332;DHT22;6735;51.456;12.626;2023-05-16T01:11:42;12.30;77.10
13332;DHT22;6735;51.456;12.626;2023-05-16T01:14:37;12.20;77.10
13332;DHT22;6735;51.456;12.626;2023-05-16T01:17:33;12.20;77.30
13332;DHT22;6735;51.456;12.626;2023-05-16T01:20:20;12.10;77.60
13332;DHT22;6735;51.456;12.626;2023-05-16T01:22:58;12.10;77.50
13332;DHT22;6735;51.456;12.626;2023-05-16T01:28:23;12.00;77.70
13332;DHT22;6735;51.456;12.626;2023-05-16T01:30:50;12.10;78.10
13332;DHT22;6735;51.456;12.626;2023-05-16T01:33:16;12.00;78.20
13332;DHT22;6735;51.456;12.626;2023-05-16T01:38:24;12.00;78.50
13332;DHT22;6735;51.456;12.626;2023-05-16T01:41:02;12.00;78.30
13332;DHT22;6735;51.456;12.626;2023-05-16T01:43:45;11.90;78.20
13332;DHT22;6735;51.456;12.626;2023-05-16T01:46:15;11.90;78.40
13332;DHT22;6735;51.456;12.626;2023-05-16T01:48:54;11.90;78.60
13332;DHT22;6735;51.456;12.626;2023-05-16T01:51:23;11.90;78.50
13332;DHT22;6735;51.456;12.626;2023-05-16T01:53:51;11.80;78.50
13332;DHT22;6735;51.456;12.626;2023-05-16T01:56:17;11.80;78.70
13332;DHT22;6735;51.456;12.626;2023-05-16T01:58:44;11.70;78.80
13332;DHT22;6735;51.456;12.626;2023-05-16T02:01:12;11.70;78.80
13332;DHT22;6735;51.456;12.626;2023-05-16T02:03:37;11.70;78.80
13332;DHT22;6735;51.456;12.626;2023-05-16T02:06:03;11.70;78.80
13332;DHT22;6735;51.456;12.626;2023-05-16T02:08:29;11.60;79.20
13332;DHT22;6735;51.456;12.626;2023-05-16T02:10:55;11.60;79.20
13332;DHT22;6735;51.456;12.626;2023-05-16T02:13:20;11.50;79.20
13332;DHT22;6735;51.456;12.626;2023-05-16T02:15:46;11.50;79.40
13332;DHT22;6735;51.456;12.626;2023-05-16T02:18:11;11.40;79.50
13332;DHT22;6735;51.456;12.626;2023-05-16T02:20:37;11.40;79.70
13332;DHT22;6735;51.456;12.626;2023-05-16T02:23:04;11.40;79.70
13332;DHT22;6735;51.456;12.626;2023-05-16T02:25:29;11.30;79.60
13332;DHT22;6735;51.456;12.626;2023-05-16T02:27:55;11.10;80.00
13332;DHT22;6735;51.456;12.626;2023-05-16T02:30:20;11.10;80.40
13332;DHT22;6735;51.456;12.626;2023-05-16T02:32:46;11.10;80.30
13332;DHT22;6735;51.456;12.626;2023-05-16T02:35:13;11.10;80.50
13332;DHT22;6735;51.456;12.626;2023-05-16T02:37:39;11.00;80.60
13332;DHT22;6735;51.456;12.626;2023-05-16T02:40:05;11.00;80.60
13332;DHT22;6735;51.456;12.626;2023-05-16T02:42:32;10.90;80.70
13332;DHT22;6735;51.456;12.626;2023-05-16T02:44:57;10.90;80.80
13332;DHT22;6735;51.456;12.626;2023-05-16T02:47:23;10.90;80.60
13332;DHT22;6735;51.456;12.626;2023-05-16T02:49:48;10.80;80.60
13332;DHT22;6735;51.456;12.626;2023-05-16T02:52:14;10.70;80.90
13332;DHT22;6735;51.456;12.626;2023-05-16T02:54:39;10.70;80.70
13332;DHT22;6735;51.456;12.626;2023-05-16T02:57:05;10.60;80.90
13332;DHT22;6735;51.456;12.626;2023-05-16T02:59:30;10.60;81.10
13332;DHT22;6735;51.456;12.626;2023-05-16T03:01:56;10.60;81.10
13332;DHT22;6735;51.456;12.626;2023-05-16T03:04:21;10.60;81.00
13332;DHT22;6735;51.456;12.626;2023-05-16T03:06:47;10.60;80.90
13332;DHT22;6735;51.456;12.626;2023-05-16T03:09:13;10.60;81.00
13332;DHT22;6735;51.456;12.626;2023-05-16T03:11:38;10.50;80.90
13332;DHT22;6735;51.456;12.626;2023-05-16T03:14:04;10.50;80.80
13332;DHT22;6735;51.456;12.626;2023-05-16T03:16:29;10.50;80.40
13332;DHT22;6735;51.456;12.626;2023-05-16T03:18:55;10.40;80.50
13332;DHT22;6735;51.456;12.626;2023-05-16T03:21:21;10.40;80.40
13332;DHT22;6735;51.456;12.626;2023-05-16T03:23:46;10.50;80.30
13332;DHT22;6735;51.456;12.626;2023-05-16T03:26:12;10.40;80.10
13332;DHT22;6735;51.456;12.626;2023-05-16T03:28:37;10.40;80.10
13332;DHT22;6735;51.456;12.626;2023-05-16T03:31:03;10.30;80.20
13332;DHT22;6735;51.456;12.626;2023-05-16T03:33:28;10.30;80.30
13332;DHT22;6735;51.456;12.626;2023-05-16T03:35:54;10.40;80.10
13332;DHT22;6735;51.456;12.626;2023-05-16T03:38:19;10.40;80.10
13332;DHT22;6735;51.456;12.626;2023-05-16T03:40:45;10.30;80.10
13332;DHT22;6735;51.456;12.626;2023-05-16T03:43:11;10.30;80.20
13332;DHT22;6735;51.456;12.626;2023-05-16T03:45:36;10.30;80.20
13332;DHT22;6735;51.456;12.626;2023-05-16T03:48:02;10.40;80.10
13332;DHT22;6735;51.456;12.626;2023-05-16T03:50:27;10.40;79.80
13332;DHT22;6735;51.456;12.626;2023-05-16T03:52:53;10.40;79.90
13332;DHT22;6735;51.456;12.626;2023-05-16T03:55:19;10.40;79.50
13332;DHT22;6735;51.456;12.626;2023-05-16T03:57:45;10.40;79.40
13332;DHT22;6735;51.456;12.626;2023-05-16T04:00:12;10.40;79.30
13332;DHT22;6735;51.456;12.626;2023-05-16T04:02:38;10.40;79.10
13332;DHT22;6735;51.456;12.626;2023-05-16T04:05:08;10.60;78.80
13332;DHT22;6735;51.456;12.626;2023-05-16T04:07:34;10.60;78.80
13332;DHT22;6735;51.456;12.626;2023-05-16T04:10:00;10.50;78.70
13332;DHT22;6735;51.456;12.626;2023-05-16T04:12:25;10.50;78.80
13332;DHT22;6735;51.456;12.626;2023-05-16T04:14:51;10.40;78.90
13332;DHT22;6735;51.456;12.626;2023-05-16T04:17:16;10.40;78.90
13332;DHT22;6735;51.456;12.626;2023-05-16T04:19:42;10.40;79.00
13332;DHT22;6735;51.456;12.626;2023-05-16T04:22:07;10.30;78.80
13332;DHT22;6735;51.456;12.626;2023-05-16T04:24:33;10.30;78.90
13332;DHT22;6735;51.456;12.626;2023-05-16T04:26:58;10.40;79.10
13332;DHT22;6735;51.456;12.626;2023-05-16T04:29:24;10.40;79.00
13332;DHT22;6735;51.456;12.626;2023-05-16T04:31:50;10.40;78.90
13332;DHT22;6735;51.456;12.626;2023-05-16T04:34:15;10.50;78.80
13332;DHT22;6735;51.456;12.626;2023-05-16T04:36:41;10.50;78.50
13332;DHT22;6735;51.456;12.626;2023-05-16T04:39:07;10.50;78.50
13332;DHT22;6735;51.456;12.626;2023-05-16T04:41:35;10.60;78.40
13332;DHT22;6735;51.456;12.626;2023-05-16T04:44:01;10.50;78.70
13332;DHT22;6735;51.456;12.626;2023-05-16T04:46:30;10.60;78.60
13332;DHT22;6735;51.456;12.626;2023-05-16T04:48:56;10.70;78.20
13332;DHT22;6735;51.456;12.626;2023-05-16T04:51:21;10.70;78.10
13332;DHT22;6735;51.456;12.626;2023-05-16T04:53:47;10.70;77.90
13332;DHT22;6735;51.456;12.626;2023-05-16T04:56:13;10.80;77.90
13332;DHT22;6735;51.456;12.626;2023-05-16T04:58:38;10.70;77.90
13332;DHT22;6735;51.456;12.626;2023-05-16T05:01:04;10.70;78.00
13332;DHT22;6735;51.456;12.626;2023-05-16T05:03:29;10.80;77.80
13332;DHT22;6735;51.456;12.626;2023-05-16T05:05:55;10.80;77.60
13332;DHT22;6735;51.456;12.626;2023-05-16T05:08:20;10.90;77.50
13332;DHT22;6735;51.456;12.626;2023-05-16T05:10:46;10.90;77.20
13332;DHT22;6735;51.456;12.626;2023-05-16T05:13:11;10.90;77.10
13332;DHT22;6735;51.456;12.626;2023-05-16T05:15:37;10.90;76.90
13332;DHT22;6735;51.456;12.626;2023-05-16T05:18:03;10.90;76.80
13332;DHT22;6735;51.456;12.626;2023-05-16T05:20:28;11.00;76.40
13332;DHT22;6735;51.456;12.626;2023-05-16T05:22:54;11.10;76.40
13332;DHT22;6735;51.456;12.626;2023-05-16T05:25:19;11.10;76.20
13332;DHT22;6735;51.456;12.626;2023-05-16T05:27:45;11.10;76.00
13332;DHT22;6735;51.456;12.626;2023-05-16T05:30:10;11.20;75.70
13332;DHT22;6735;51.456;12.626;2023-05-16T05:32:36;11.20;75.60
13332;DHT22;6735;51.456;12.626;2023-05-16T05:35:02;11.20;75.50
13332;DHT22;6735;51.456;12.626;2023-05-16T05:37:28;11.20;75.70
13332;DHT22;6735;51.456;12.626;2023-05-16T05:39:54;11.20;75.70
13332;DHT22;6735;51.456;12.626;2023-05-16T05:42:20;11.20;75.70
13332;DHT22;6735;51.456;12.626;2023-05-16T05:44:45;11.20;75.50
13332;DHT22;6735;51.456;12.626;2023-05-16T05:47:11;11.30;75.30
13332;DHT22;6735;51.456;12.626;2023-05-16T05:49:36;11.20;75.30
13332;DHT22;6735;51.456;12.626;2023-05-16T05:52:02;11.30;75.40
13332;DHT22;6735;51.456;12.626;2023-05-16T05:54:28;11.20;75.20
13332;DHT22;6735;51.456;12.626;2023-05-16T05:56:54;11.20;75.20
13332;DHT22;6735;51.456;12.626;2023-05-16T05:59:19;11.30;75.20
13332;DHT22;6735;51.456;12.626;2023-05-16T06:01:45;11.40;75.10
13332;DHT22;6735;51.456;12.626;2023-05-16T06:04:11;11.40;74.70
13332;DHT22;6735;51.456;12.626;2023-05-16T06:06:37;11.40;74.70
13332;DHT22;6735;51.456;12.626;2023-05-16T06:09:02;11.50;74.50
13332;DHT22;6735;51.456;12.626;2023-05-16T06:11:28;11.50;74.70
13332;DHT22;6735;51.456;12.626;2023-05-16T06:13:53;11.50;74.60
13332;DHT22;6735;51.456;12.626;2023-05-16T06:16:22;11.50;74.70
13332;DHT22;6735;51.456;12.626;2023-05-16T06:18:48;11.50;74.70
13332;DHT22;6735;51.456;12.626;2023-05-16T06:21:13;11.50;74.60
13332;DHT22;6735;51.456;12.626;2023-05-16T06:23:39;11.50;74.60
13332;DHT22;6735;51.456;12.626;2023-05-16T06:26:05;11.50;74.40
13332;DHT22;6735;51.456;12.626;2023-05-16T06:28:30;11.60;74.30
13332;DHT22;6735;51.456;12.626;2023-05-16T06:30:56;11.50;74.20
13332;DHT22;6735;51.456;12.626;2023-05-16T06:33:21;11.70;74.40
13332;DHT22;6735;51.456;12.626;2023-05-16T06:35:47;11.70;74.20
13332;DHT22;6735;51.456;12.626;2023-05-16T06:38:13;11.80;73.90
13332;DHT22;6735;51.456;12.626;2023-05-16T06:40:39;11.90;73.60
13332;DHT22;6735;51.456;12.626;2023-05-16T06:43:05;11.90;73.50
13332;DHT22;6735;51.456;12.626;2023-05-16T06:45:30;11.90;73.50
13332;DHT22;6735;51.456;12.626;2023-05-16T06:47:56;12.00;73.20
13332;DHT22;6735;51.456;12.626;2023-05-16T06:50:21;12.00;73.20
13332;DHT22;6735;51.456;12.626;2023-05-16T06:52:47;12.10;72.80
13332;DHT22;6735;51.456;12.626;2023-05-16T06:55:12;12.10;72.80
13332;DHT22;6735;51.456;12.626;2023-05-16T06:57:38;12.10;72.70
13332;DHT22;6735;51.456;12.626;2023-05-16T07:00:04;12.10;72.50
13332;DHT22;6735;51.456;12.626;2023-05-16T07:02:30;12.10;72.80
13332;DHT22;6735;51.456;12.626;2023-05-16T07:04:55;12.10;72.90
13332;DHT22;6735;51.456;12.626;2023-05-16T07:07:21;12.00;72.90
13332;DHT22;6735;51.456;12.626;2023-05-16T07:09:46;12.00;73.00
13332;DHT22;6735;51.456;12.626;2023-05-16T07:12:12;12.00;73.10
13332;DHT22;6735;51.456;12.626;2023-05-16T07:14:37;11.90;73.20
13332;DHT22;6735;51.456;12.626;2023-05-16T07:17:03;12.10;73.00
13332;DHT22;6735;51.456;12.626;2023-05-16T07:19:28;12.20;72.80
13332;DHT22;6735;51.456;12.626;2023-05-16T07:21:54;12.10;72.90
13332;DHT22;6735;51.456;12.626;2023-05-16T07:24:20;12.20;72.70
13332;DHT22;6735;51.456;12.626;2023-05-16T07:26:45;12.20;72.70
13332;DHT22;6735;51.456;12.626;2023-05-16T07:29:11;12.30;72.40
13332;DHT22;6735;51.456;12.626;2023-05-16T07:31:36;12.40;72.10
13332;DHT22;6735;51.456;12.626;2023-05-16T07:34:02;12.40;72.30
13332;DHT22;6735;51.456;12.626;2023-05-16T07:36:27;12.30;72.20
13332;DHT22;6735;51.456;12.626;2023-05-16T07:38:53;12.40;72.20
13332;DHT22;6735;51.456;12.626;2023-05-16T07:41:18;12.40;72.00
13332;DHT22;6735;51.456;12.626;2023-05-16T07:43:44;12.50;71.90
13332;DHT22;6735;51.456;12.626;2023-05-16T07:46:10;12.60;71.70
13332;DHT22;6735;51.456;12.626;2023-05-16T07:48:36;12.50;71.80
13332;DHT22;6735;51.456;12.626;2023-05-16T07:51:01;12.60;71.50
13332;DHT22;6735;51.456;12.626;2023-05-16T07:53:27;12.60;71.40
13332;DHT22;6735;51.456;12.626;2023-05-16T07:55:52;12.60;71.30
13332;DHT22;6735;51.456;12.626;2023-05-16T07:58:18;12.60;71.50
13332;DHT22;6735;51.456;12.626;2023-05-16T08:00:44;12.60;71.50
13332;DHT22;6735;51.456;12.626;2023-05-16T08:03:09;12.50;71.30
13332;DHT22;6735;51.456;12.626;2023-05-16T08:05:35;12.40;71.70
13332;DHT22;6735;51.456;12.626;2023-05-16T08:08:00;12.40;71.90
13332;DHT22;6735;51.456;12.626;2023-05-16T08:10:26;12.40;72.00
13332;DHT22;6735;51.456;12.626;2023-05-16T08:12:51;12.60;71.80
13332;DHT22;6735;51.456;12.626;2023-05-16T08:15:18;12.60;71.60
13332;DHT22;6735;51.456;12.626;2023-05-16T08:17:43;12.70;71.50
13332;DHT22;6735;51.456;12.626;2023-05-16T08:20:09;12.70;71.20
13332;DHT22;6735;51.456;12.626;2023-05-16T08:22:35;12.70;71.10
13332;DHT22;6735;51.456;12.626;2023-05-16T08:25:00;12.70;71.20
13332;DHT22;6735;51.456;12.626;2023-05-16T08:27:27;12.90;70.90
13332;DHT22;6735;51.456;12.626;2023-05-16T08:29:53;13.10;70.40
13332;DHT22;6735;51.456;12.626;2023-05-16T08:32:18;13.40;69.40
13332;DHT22;6735;51.456;12.626;2023-05-16T08:34:44;13.60;69.00
13332;DHT22;6735;51.456;12.626;2023-05-16T08:37:09;14.10;67.80
13332;DHT22;6735;51.456;12.626;2023-05-16T08:39:37;14.30;67.10
13332;DHT22;6735;51.456;12.626;2023-05-16T08:42:03;14.60;67.00
13332;DHT22;6735;51.456;12.626;2023-05-16T08:44:29;14.80;66.30
13332;DHT22;6735;51.456;12.626;2023-05-16T08:46:56;14.90;65.80
13332;DHT22;6735;51.456;12.626;2023-05-16T08:49:22;14.90;65.00
13332;DHT22;6735;51.456;12.626;2023-05-16T08:51:51;14.80;65.70
13332;DHT22;6735;51.456;12.626;2023-05-16T08:54:20;14.80;66.00
13332;DHT22;6735;51.456;12.626;2023-05-16T08:56:47;14.90;65.90
13332;DHT22;6735;51.456;12.626;2023-05-16T08:59:14;15.10;64.80
13332;DHT22;6735;51.456;12.626;2023-05-16T09:01:40;15.20;64.70
13332;DHT22;6735;51.456;12.626;2023-05-16T09:04:07;15.20;64.30
13332;DHT22;6735;51.456;12.626;2023-05-16T09:06:36;15.10;64.80
13332;DHT22;6735;51.456;12.626;2023-05-16T09:09:02;15.10;64.70
13332;DHT22;6735;51.456;12.626;2023-05-16T09:11:28;15.10;64.60
13332;DHT22;6735;51.456;12.626;2023-05-16T09:13:54;14.90;64.70
13332;DHT22;6735;51.456;12.626;2023-05-16T09:16:20;14.80;64.90
13332;DHT22;6735;51.456;12.626;2023-05-16T09:19:06;14.80;65.00
13332;DHT22;6735;51.456;12.626;2023-05-16T09:21:33;14.60;64.60
13332;DHT22;6735;51.456;12.626;2023-05-16T09:24:03;14.50;65.60
13332;DHT22;6735;51.456;12.626;2023-05-16T09:26:29;14.50;65.80
13332;DHT22;6735;51.456;12.626;2023-05-16T09:28:55;14.40;65.70
13332;DHT22;6735;51.456;12.626;2023-05-16T09:31:23;14.30;66.40
13332;DHT22;6735;51.456;12.626;2023-05-16T09:33:51;14.20;66.60
13332;DHT22;6735;51.456;12.626;2023-05-16T09:36:17;14.20;66.70
13332;DHT22;6735;51.456;12.626;2023-05-16T09:38:43;14.10;67.00
13332;DHT22;6735;51.456;12.626;2023-05-16T09:41:09;14.30;66.80
13332;DHT22;6735;51.456;12.626;2023-05-16T09:43:40;14.30;66.80
13332;DHT22;6735;51.456;12.626;2023-05-16T09:46:07;14.60;66.50
13332;DHT22;6735;51.456;12.626;2023-05-16T09:48:33;14.50;66.30
13332;DHT22;6735;51.456;12.626;2023-05-16T09:51:00;14.70;66.00
13332;DHT22;6735;51.456;12.626;2023-05-16T09:53:30;14.70;65.50
13332;DHT22;6735;51.456;12.626;2023-05-16T09:56:05;14.90;64.80
13332;DHT22;6735;51.456;12.626;2023-05-16T09:58:36;14.90;64.80
13332;DHT22;6735;51.456;12.626;2023-05-16T10:01:02;14.90;64.60
13332;DHT22;6735;51.456;12.626;2023-05-16T10:03:28;14.80;65.00
13332;DHT22;6735;51.456;12.626;2023-05-16T10:05:54;14.80;65.10
13332;DHT22;6735;51.456;12.626;2023-05-16T10:08:21;14.70;65.20
13332;DHT22;6735;51.456;12.626;2023-05-16T10:10:50;14.60;65.70
13332;DHT22;6735;51.456;12.626;2023-05-16T10:13:19;14.30;65.60
13332;DHT22;6735;51.456;12.626;2023-05-16T10:15:46;14.10;66.30
13332;DHT22;6735;51.456;12.626;2023-05-16T10:18:13;14.10;66.40
13332;DHT22;6735;51.456;12.626;2023-05-16T10:20:40;13.90;66.40
13332;DHT22;6735;51.456;12.626;2023-05-16T10:23:08;13.90;66.80
13332;DHT22;6735;51.456;12.626;2023-05-16T10:25:40;13.90;66.90
13332;DHT22;6735;51.456;12.626;2023-05-16T10:28:07;13.80;66.70
13332;DHT22;6735;51.456;12.626;2023-05-16T10:30:33;13.90;66.90
13332;DHT22;6735;51.456;12.626;2023-05-16T10:33:01;13.80;67.00
13332;DHT22;6735;51.456;12.626;2023-05-16T10:35:27;13.80;67.00
13332;DHT22;6735;51.456;12.626;2023-05-16T10:37:53;13.90;66.90
13332;DHT22;6735;51.456;12.626;2023-05-16T10:40:20;14.00;66.70
13332;DHT22;6735;51.456;12.626;2023-05-16T10:42:56;14.10;66.40
13332;DHT22;6735;51.456;12.626;2023-05-16T10:45:22;14.10;66.00
13332;DHT22;6735;51.456;12.626;2023-05-16T10:48:02;14.20;66.00
13332;DHT22;6735;51.456;12.626;2023-05-16T10:50:42;14.10;65.90
13332;DHT22;6735;51.456;12.626;2023-05-16T10:55:48;14.30;65.60
13332;DHT22;6735;51.456;12.626;2023-05-16T11:06:43;14.00;65.60
13332;DHT22;6735;51.456;12.626;2023-05-16T11:11:52;14.00;65.40
13332;DHT22;6735;51.456;12.626;2023-05-16T11:17:03;13.80;64.70
13332;DHT22;6735;51.456;12.626;2023-05-16T11:19:43;13.80;64.40
13332;DHT22;6735;51.456;12.626;2023-05-16T11:22:10;13.80;63.70
13332;DHT22;6735;51.456;12.626;2023-05-16T11:25:00;13.90;63.40
13332;DHT22;6735;51.456;12.626;2023-05-16T11:27:30;13.90;63.10
13332;DHT22;6735;51.456;12.626;2023-05-16T11:32:33;14.30;62.40
13332;DHT22;6735;51.456;12.626;2023-05-16T11:34:59;14.50;62.20
13332;DHT22;6735;51.456;12.626;2023-05-16T11:37:26;14.60;61.60
13332;DHT22;6735;51.456;12.626;2023-05-16T11:39:51;14.70;61.30
13332;DHT22;6735;51.456;12.626;2023-05-16T11:42:18;14.90;61.30
13332;DHT22;6735;51.456;12.626;2023-05-16T11:44:44;14.90;61.10
13332;DHT22;6735;51.456;12.626;2023-05-16T11:47:10;14.80;60.50
13332;DHT22;6735;51.456;12.626;2023-05-16T11:49:36;14.60;61.30
13332;DHT22;6735;51.456;12.626;2023-05-16T11:52:03;14.40;61.40
13332;DHT22;6735;51.456;12.626;2023-05-16T11:54:28;14.40;61.60
13332;DHT22;6735;51.456;12.626;2023-05-16T11:56:54;14.30;61.10
13332;DHT22;6735;51.456;12.626;2023-05-16T11:59:20;14.50;60.90
13332;DHT22;6735;51.456;12.626;2023-05-16T12:01:46;14.50;60.80
13332;DHT22;6735;51.456;12.626;2023-05-16T12:04:15;14.60;60.50
13332;DHT22;6735;51.456;12.626;2023-05-16T12:06:42;14.50;60.20
13332;DHT22;6735;51.456;12.626;2023-05-16T12:09:12;14.60;60.30
13332;DHT22;6735;51.456;12.626;2023-05-16T12:11:40;14.80;59.70
13332;DHT22;6735;51.456;12.626;2023-05-16T12:14:07;14.90;59.40
13332;DHT22;6735;51.456;12.626;2023-05-16T12:16:34;15.20;58.70
13332;DHT22;6735;51.456;12.626;2023-05-16T12:19:01;15.50;57.50
13332;DHT22;6735;51.456;12.626;2023-05-16T12:21:29;16.10;56.60
13332;DHT22;6735;51.456;12.626;2023-05-16T12:23:55;16.60;54.90
13332;DHT22;6735;51.456;12.626;2023-05-16T12:26:24;16.40;54.70
13332;DHT22;6735;51.456;12.626;2023-05-16T12:28:52;16.30;54.70
13332;DHT22;6735;51.456;12.626;2023-05-16T12:31:20;16.30;54.60
13332;DHT22;6735;51.456;12.626;2023-05-16T12:33:45;16.20;54.30
13332;DHT22;6735;51.456;12.626;2023-05-16T12:36:14;16.10;53.70
13332;DHT22;6735;51.456;12.626;2023-05-16T12:38:41;16.30;53.90
13332;DHT22;6735;51.456;12.626;2023-05-16T12:41:10;16.30;53.70
13332;DHT22;6735;51.456;12.626;2023-05-16T12:43:35;16.50;53.60
13332;DHT22;6735;51.456;12.626;2023-05-16T12:46:00;16.50;52.70
13332;DHT22;6735;51.456;12.626;2023-05-16T12:48:33;16.30;52.70
13332;DHT22;6735;51.456;12.626;2023-05-16T12:51:13;16.20;53.40
13332;DHT22;6735;51.456;12.626;2023-05-16T12:53:42;16.20;53.30
13332;DHT22;6735;51.456;12.626;2023-05-16T12:56:09;16.40;53.20
13332;DHT22;6735;51.456;12.626;2023-05-16T12:58:36;16.70;52.60
13332;DHT22;6735;51.456;12.626;2023-05-16T13:01:02;16.90;52.10
13332;DHT22;6735;51.456;12.626;2023-05-16T13:03:28;17.20;50.50
13332;DHT22;6735;51.456;12.626;2023-05-16T13:05:53;17.30;50.30
13332;DHT22;6735;51.456;12.626;2023-05-16T13:08:18;17.30;50.00
13332;DHT22;6735;51.456;12.626;2023-05-16T13:10:44;17.20;50.10
13332;DHT22;6735;51.456;12.626;2023-05-16T13:13:10;17.00;49.70
13332;DHT22;6735;51.456;12.626;2023-05-16T13:15:36;17.00;50.20
13332;DHT22;6735;51.456;12.626;2023-05-16T13:18:02;17.10;49.80
13332;DHT22;6735;51.456;12.626;2023-05-16T13:20:28;16.90;49.30
13332;DHT22;6735;51.456;12.626;2023-05-16T13:22:53;17.00;49.40
13332;DHT22;6735;51.456;12.626;2023-05-16T13:25:20;17.10;49.00
13332;DHT22;6735;51.456;12.626;2023-05-16T13:27:45;17.50;48.40
13332;DHT22;6735;51.456;12.626;2023-05-16T13:30:13;17.60;47.90
13332;DHT22;6735;51.456;12.626;2023-05-16T13:32:39;17.60;47.80
13332;DHT22;6735;51.456;12.626;2023-05-16T13:35:05;17.60;47.00
13332;DHT22;6735;51.456;12.626;2023-05-16T13:37:31;17.20;48.00
13332;DHT22;6735;51.456;12.626;2023-05-16T13:39:57;17.40;47.50
13332;DHT22;6735;51.456;12.626;2023-05-16T13:42:22;17.40;47.80
13332;DHT22;6735;51.456;12.626;2023-05-16T13:44:47;17.40;47.30
13332;DHT22;6735;51.456;12.626;2023-05-16T13:47:13;17.20;47.70
13332;DHT22;6735;51.456;12.626;2023-05-16T13:49:39;17.20;47.20
13332;DHT22;6735;51.456;12.626;2023-05-16T13:52:05;17.20;47.00
13332;DHT22;6735;51.456;12.626;2023-05-16T13:54:30;17.40;46.20
13332;DHT22;6735;51.456;12.626;2023-05-16T13:56:56;17.80;45.50
13332;DHT22;6735;51.456;12.626;2023-05-16T13:59:22;17.90;44.40
13332;DHT22;6735;51.456;12.626;2023-05-16T14:01:47;18.10;43.60
13332;DHT22;6735;51.456;12.626;2023-05-16T14:04:12;18.40;43.30
13332;DHT22;6735;51.456;12.626;2023-05-16T14:06:38;18.70;42.80
13332;DHT22;6735;51.456;12.626;2023-05-16T14:09:04;18.80;41.90
13332;DHT22;6735;51.456;12.626;2023-05-16T14:11:29;18.70;42.50
13332;DHT22;6735;51.456;12.626;2023-05-16T14:13:56;18.70;41.90
13332;DHT22;6735;51.456;12.626;2023-05-16T14:16:21;18.80;41.80
13332;DHT22;6735;51.456;12.626;2023-05-16T14:18:47;18.70;41.40
13332;DHT22;6735;51.456;12.626;2023-05-16T14:21:13;18.90;41.30
13332;DHT22;6735;51.456;12.626;2023-05-16T14:23:38;19.10;40.30
13332;DHT22;6735;51.456;12.626;2023-05-16T14:26:04;19.30;39.30
13332;DHT22;6735;51.456;12.626;2023-05-16T14:28:30;19.00;39.80
13332;DHT22;6735;51.456;12.626;2023-05-16T14:31:00;18.90;40.00
13332;DHT22;6735;51.456;12.626;2023-05-16T14:33:26;19.20;39.50
13332;DHT22;6735;51.456;12.626;2023-05-16T14:35:52;19.30;38.70
13332;DHT22;6735;51.456;12.626;2023-05-16T14:38:18;19.20;39.00
13332;DHT22;6735;51.456;12.626;2023-05-16T14:40:44;19.00;37.70
13332;DHT22;6735;51.456;12.626;2023-05-16T14:43:09;19.00;38.70
13332;DHT22;6735;51.456;12.626;2023-05-16T14:45:36;19.00;38.10
13332;DHT22;6735;51.456;12.626;2023-05-16T14:48:02;18.70;37.90
13332;DHT22;6735;51.456;12.626;2023-05-16T14:50:28;18.40;38.40
13332;DHT22;6735;51.456;12.626;2023-05-16T14:52:53;18.20;38.90
13332;DHT22;6735;51.456;12.626;2023-05-16T14:55:19;18.00;39.30
13332;DHT22;6735;51.456;12.626;2023-05-16T14:57:45;17.70;39.60
13332;DHT22;6735;51.456;12.626;2023-05-16T15:00:11;17.70;39.70
13332;DHT22;6735;51.456;12.626;2023-05-16T15:02:37;17.70;39.60
13332;DHT22;6735;51.456;12.626;2023-05-16T15:05:03;17.80;39.60
13332;DHT22;6735;51.456;12.626;2023-05-16T15:07:29;18.00;39.60
13332;DHT22;6735;51.456;12.626;2023-05-16T15:09:54;18.10;39.70
13332;DHT22;6735;51.456;12.626;2023-05-16T15:12:20;18.10;39.70
13332;DHT22;6735;51.456;12.626;2023-05-16T15:14:45;18.00;39.10
13332;DHT22;6735;51.456;12.626;2023-05-16T15:17:11;17.90;38.50
13332;DHT22;6735;51.456;12.626;2023-05-16T15:19:36;17.80;38.50
13332;DHT22;6735;51.456;12.626;2023-05-16T15:22:02;17.80;38.50
13332;DHT22;6735;51.456;12.626;2023-05-16T15:24:32;18.00;38.20
13332;DHT22;6735;51.456;12.626;2023-05-16T15:26:57;17.90;38.20
13332;DHT22;6735;51.456;12.626;2023-05-16T15:29:24;17.90;37.70
13332;DHT22;6735;51.456;12.626;2023-05-16T15:31:50;17.80;37.70
13332;DHT22;6735;51.456;12.626;2023-05-16T15:34:15;17.70;37.60
13332;DHT22;6735;51.456;12.626;2023-05-16T15:36:41;17.60;37.70
13332;DHT22;6735;51.456;12.626;2023-05-16T15:39:06;17.30;37.30
13332;DHT22;6735;51.456;12.626;2023-05-16T15:41:32;17.30;37.50
13332;DHT22;6735;51.456;12.626;2023-05-16T15:43:58;17.30;37.00
13332;DHT22;6735;51.456;12.626;2023-05-16T15:46:23;17.20;36.70
13332;DHT22;6735;51.456;12.626;2023-05-16T15:48:49;17.20;35.40
13332;DHT22;6735;51.456;12.626;2023-05-16T15:51:14;17.10;35.90